Time;durP1;ratioP1;P1;durP2;ratioP2;P2;SDS_P1;SDS_P2;PMS_P1;PMS_P2;Temp;Humidity;BMP_temperature;BMP_pressure;BME280_temperature;BME280_humidity;BME280_pressure;Samples;Min_cycle;Max_cycle;Signal;HPM_P1;HPM_P2
2023/12/24 00:01:06;;;;;;;0.63;0.63;;;8.60;99.90;;;;;;5122674;27;20039;-82
2023/12/24 00:03:36;;;;;;;0.30;0.30;;;8.60;99.90;;;;;;5095909;28;20035;-79
2023/12/24 00:06:02;;;;;;;0.40;0.40;;;8.60;99.90;;;;;;5123735;27;20043;-78
2023/12/24 00:08:28;;;;;;;0.40;0.40;;;8.60;99.90;;;;;;5123184;27;20637;-79
2023/12/24 00:10:56;;;;;;;0.40;0.40;;;8.70;99.90;;;;;;5123284;27;20053;-80
2023/12/24 00:13:22;;;;;;;0.30;0.30;;;8.60;99.90;;;;;;5105590;28;20502;-79
2023/12/24 00:15:48;;;;;;;;;;;8.60;99.90;;;;;;5125312;27;20080;-81
2023/12/24 00:18:13;;;;;;;0.40;0.40;;;8.70;99.90;;;;;;5107281;27;20403;-78
2023/12/24 00:20:39;;;;;;;0.82;0.82;;;8.70;99.90;;;;;;5123426;27;20207;-78
2023/12/24 00:23:09;;;;;;;0.30;0.30;;;8.70;99.90;;;;;;5126282;27;20577;-82
2023/12/24 00:25:36;;;;;;;0.40;0.40;;;8.80;99.90;;;;;;5130952;27;20059;-80
2023/12/24 00:28:03;;;;;;;0.40;0.40;;;8.70;99.90;;;;;;5128827;27;20108;-79
2023/12/24 00:30:29;;;;;;;0.40;0.40;;;8.70;99.90;;;;;;5129978;27;20074;-79
2023/12/24 00:32:55;;;;;;;1.48;1.38;;;8.70;99.90;;;;;;5113527;27;20035;-81
2023/12/24 00:35:23;;;;;;;5.47;2.75;;;8.90;99.90;;;;;;5120427;27;20480;-81
2023/12/24 00:37:50;;;;;;;0.40;0.40;;;8.70;99.90;;;;;;5131796;27;20381;-79
2023/12/24 00:40:17;;;;;;;1.15;1.15;;;8.70;99.90;;;;;;5142459;27;20043;-79
2023/12/24 00:42:43;;;;;;;0.40;0.40;;;8.70;99.90;;;;;;5128999;27;20120;-78
2023/12/24 00:45:12;;;;;;;0.50;0.50;;;8.70;99.90;;;;;;5132704;27;20071;-79
2023/12/24 00:47:39;;;;;;;1.15;1.08;;;8.70;99.90;;;;;;5132326;27;20050;-79
2023/12/24 00:50:06;;;;;;;2.00;1.25;;;8.70;99.90;;;;;;5133367;27;20047;-77
2023/12/24 00:52:33;;;;;;;0.40;0.40;;;8.60;99.90;;;;;;5122980;27;20130;-82
2023/12/24 00:54:58;;;;;;;0.40;0.40;;;8.70;99.90;;;;;;5125444;27;20566;-80
2023/12/24 00:57:24;;;;;;;0.35;0.35;;;8.60;99.90;;;;;;5124772;27;20161;-79
2023/12/24 00:59:50;;;;;;;0.30;0.30;;;8.60;99.90;;;;;;5101414;27;20042;-77
2023/12/24 01:02:16;;;;;;;0.38;0.38;;;8.60;99.90;;;;;;5129457;27;20035;-80
2023/12/24 01:04:41;;;;;;;0.60;0.60;;;8.60;99.90;;;;;;5126399;27;20054;-80
2023/12/24 01:07:07;;;;;;;0.35;0.35;;;8.60;99.90;;;;;;5127673;27;20043;-84
2023/12/24 01:09:36;;;;;;;0.40;0.40;;;8.60;99.90;;;;;;5097985;27;20119;-79
2023/12/24 01:12:02;;;;;;;0.40;0.40;;;8.60;99.90;;;;;;5127856;27;20039;-81
2023/12/24 01:14:27;;;;;;;0.40;0.40;;;8.60;99.90;;;;;;5124938;27;20070;-79
2023/12/24 01:16:53;;;;;;;0.50;0.50;;;8.60;99.90;;;;;;5126900;27;20075;-82
2023/12/24 01:19:19;;;;;;;0.30;0.30;;;8.60;99.90;;;;;;5126695;27;20046;-80
2023/12/24 01:21:44;;;;;;;0.43;0.43;;;8.70;99.90;;;;;;5125614;27;20479;-80
2023/12/24 01:24:10;;;;;;;0.40;0.40;;;8.60;99.90;;;;;;5125537;27;20062;-81
2023/12/24 01:26:36;;;;;;;0.40;0.40;;;8.70;99.90;;;;;;5131062;27;20047;-80
2023/12/24 01:29:03;;;;;;;0.30;0.30;;;8.60;99.90;;;;;;5129875;27;20084;-80
2023/12/24 01:31:29;;;;;;;0.30;0.30;;;8.70;99.90;;;;;;5128488;27;20213;-81
2023/12/24 01:33:55;;;;;;;0.38;0.38;;;8.60;99.90;;;;;;5126268;27;20074;-81
2023/12/24 01:36:20;;;;;;;0.47;0.47;;;8.60;99.90;;;;;;5127984;27;20049;-79
2023/12/24 01:38:46;;;;;;;0.30;0.30;;;8.60;99.90;;;;;;5129300;27;20031;-80
2023/12/24 01:41:12;;;;;;;0.30;0.30;;;8.60;99.90;;;;;;5135176;27;20185;-80
2023/12/24 01:43:40;;;;;;;;;;;8.60;99.90;;;;;;5127369;27;20031;-81
2023/12/24 01:46:07;;;;;;;0.40;0.40;;;8.60;99.90;;;;;;5115791;27;20268;-78
2023/12/24 01:48:32;;;;;;;0.40;0.40;;;8.70;99.90;;;;;;5114017;27;21356;-79
2023/12/24 01:51:00;;;;;;;0.32;0.32;;;8.70;99.90;;;;;;5120549;27;20043;-79
2023/12/24 01:53:26;;;;;;;0.38;0.38;;;8.70;99.90;;;;;;5137711;27;20131;-79
2023/12/24 01:55:53;;;;;;;0.30;0.30;;;8.70;99.90;;;;;;5121734;27;20039;-79
2023/12/24 01:58:19;;;;;;;0.30;0.30;;;8.70;99.90;;;;;;5133827;27;20046;-80
2023/12/24 02:00:46;;;;;;;0.20;0.20;;;8.70;99.90;;;;;;5119626;27;20050;-80
2023/12/24 02:03:13;;;;;;;0.40;0.40;;;8.60;99.90;;;;;;5132200;27;20080;-77
2023/12/24 02:05:40;;;;;;;1.55;0.50;;;8.70;99.90;;;;;;5126796;27;20709;-79
2023/12/24 02:08:07;;;;;;;0.32;0.32;;;8.70;99.90;;;;;;5128462;27;20038;-80
2023/12/24 02:10:33;;;;;;;0.30;0.30;;;8.60;99.90;;;;;;5121499;27;20043;-78
2023/12/24 02:12:59;;;;;;;0.30;0.30;;;8.70;99.90;;;;;;5108181;27;20031;-78
2023/12/24 02:15:25;;;;;;;0.40;0.40;;;8.70;99.90;;;;;;5127123;27;20399;-81
2023/12/24 02:17:51;;;;;;;0.30;0.30;;;8.70;99.90;;;;;;5109206;27;20046;-76
2023/12/24 02:20:25;;;;;;;0.35;0.35;;;8.70;99.90;;;;;;5115116;27;20613;-82
2023/12/24 02:22:50;;;;;;;0.50;0.50;;;8.70;99.90;;;;;;5111090;27;20147;-77
2023/12/24 02:25:16;;;;;;;0.25;0.25;;;8.70;99.90;;;;;;5127739;27;20138;-76
2023/12/24 02:27:55;;;;;;;0.40;0.40;;;8.70;99.90;;;;;;5130254;27;20055;-81
2023/12/24 02:30:26;;;;;;;0.50;0.50;;;8.70;99.90;;;;;;5126072;27;20097;-79
2023/12/24 02:32:57;;;;;;;0.40;0.40;;;8.70;99.90;;;;;;5128644;27;20050;-78
2023/12/24 02:35:29;;;;;;;1.15;0.68;;;8.70;99.90;;;;;;5129678;27;20490;-78
2023/12/24 02:37:54;;;;;;;1.02;1.02;;;8.80;99.90;;;;;;5127364;27;20043;-80
2023/12/24 02:40:20;;;;;;;0.40;0.40;;;8.70;99.90;;;;;;5123154;27;20407;-81
2023/12/24 02:42:46;;;;;;;0.50;0.50;;;8.80;99.90;;;;;;5127276;27;20038;-78
2023/12/24 02:45:12;;;;;;;0.30;0.30;;;8.70;99.90;;;;;;5106920;27;20150;-80
2023/12/24 02:47:37;;;;;;;0.40;0.40;;;8.80;99.90;;;;;;5129726;27;20115;-79
2023/12/24 02:50:04;;;;;;;0.50;0.50;;;8.80;99.90;;;;;;5112949;27;20108;-77
2023/12/24 02:52:30;;;;;;;0.40;0.40;;;8.80;99.90;;;;;;5104630;27;20377;-81
2023/12/24 02:54:56;;;;;;;0.30;0.30;;;8.80;99.90;;;;;;5126755;27;20039;-80
2023/12/24 02:57:22;;;;;;;0.43;0.43;;;8.80;99.90;;;;;;5131610;27;20471;-81
2023/12/24 02:59:48;;;;;;;0.40;0.40;;;8.80;99.90;;;;;;5133505;27;20051;-80
2023/12/24 03:02:13;;;;;;;0.30;0.30;;;8.80;99.90;;;;;;5130495;27;20054;-79
2023/12/24 03:04:39;;;;;;;0.32;0.32;;;8.80;99.90;;;;;;5131189;27;20042;-76
2023/12/24 03:07:05;;;;;;;6.70;1.17;;;8.80;99.90;;;;;;5133831;27;20034;-77
2023/12/24 03:09:30;;;;;;;0.40;0.40;;;8.80;99.90;;;;;;5129500;27;20052;-80
2023/12/24 03:12:08;;;;;;;0.50;0.50;;;8.80;99.90;;;;;;5133293;27;20400;-80
2023/12/24 03:14:33;;;;;;;0.40;0.40;;;8.90;99.90;;;;;;5128348;27;20039;-80
2023/12/24 03:17:00;;;;;;;0.63;0.63;;;8.90;99.90;;;;;;5124436;27;20039;-78
2023/12/24 03:19:25;;;;;;;0.40;0.40;;;9.00;99.90;;;;;;5107614;27;20073;-80
2023/12/24 03:21:51;;;;;;;0.30;0.30;;;9.00;99.90;;;;;;5132467;27;20031;-80
2023/12/24 03:24:17;;;;;;;0.30;0.30;;;8.90;99.90;;;;;;5108401;27;20043;-78
2023/12/24 03:26:42;;;;;;;0.32;0.32;;;8.90;99.90;;;;;;5124431;27;20043;-77
2023/12/24 03:29:12;;;;;;;0.40;0.40;;;9.00;99.90;;;;;;5129881;27;20034;-78
2023/12/24 03:31:38;;;;;;;0.32;0.32;;;8.90;99.90;;;;;;5109214;27;20035;-79
2023/12/24 03:34:03;;;;;;;0.40;0.40;;;9.00;99.90;;;;;;5121329;27;20067;-80
2023/12/24 03:36:29;;;;;;;0.73;0.73;;;8.90;99.90;;;;;;5129264;27;20202;-78
2023/12/24 03:38:55;;;;;;;1.48;1.48;;;9.00;99.90;;;;;;5126667;27;20110;-77
2023/12/24 03:41:20;;;;;;;0.30;0.30;;;8.90;99.90;;;;;;5123944;27;20088;-80
2023/12/24 03:43:46;;;;;;;0.50;0.50;;;8.90;99.90;;;;;;5122448;27;20396;-81
2023/12/24 03:46:12;;;;;;;0.40;0.40;;;8.90;99.90;;;;;;5134501;27;20031;-81
2023/12/24 03:48:37;;;;;;;0.32;0.32;;;8.90;99.90;;;;;;5128373;27;20125;-79
2023/12/24 03:51:03;;;;;;;0.43;0.43;;;9.00;99.90;;;;;;5131362;27;20043;-80
2023/12/24 03:53:29;;;;;;;0.60;0.60;;;9.00;99.90;;;;;;5122822;27;20118;-80
2023/12/24 03:55:55;;;;;;;0.38;0.38;;;8.90;99.90;;;;;;5125893;27;20515;-80
2023/12/24 03:58:20;;;;;;;0.40;0.40;;;9.00;99.90;;;;;;5126427;27;20666;-80
2023/12/24 04:00:46;;;;;;;0.30;0.30;;;9.00;99.90;;;;;;5129013;27;20070;-78
2023/12/24 04:03:12;;;;;;;0.40;0.40;;;9.00;99.90;;;;;;5132536;27;20104;-81
2023/12/24 04:05:37;;;;;;;0.40;0.40;;;9.00;99.90;;;;;;5134407;27;20050;-80
2023/12/24 04:08:04;;;;;;;0.40;0.40;;;9.00;99.90;;;;;;5124634;27;20046;-79
2023/12/24 04:10:31;;;;;;;0.32;0.32;;;9.10;99.90;;;;;;5129870;27;20082;-80
2023/12/24 04:13:03;;;;;;;0.35;0.35;;;9.10;99.90;;;;;;5129782;27;20046;-79
2023/12/24 04:15:29;;;;;;;0.38;0.38;;;9.10;99.90;;;;;;5122467;27;20384;-81
2023/12/24 04:17:54;;;;;;;0.40;0.40;;;9.10;99.90;;;;;;5097236;28;20690;-82
2023/12/24 04:20:20;;;;;;;0.30;0.30;;;9.10;99.90;;;;;;5124741;28;20039;-79
2023/12/24 04:22:46;;;;;;;0.30;0.30;;;9.10;99.90;;;;;;5127549;27;20039;-79
2023/12/24 04:25:11;;;;;;;0.30;0.30;;;9.10;99.90;;;;;;5124787;27;20141;-82
2023/12/24 04:27:37;;;;;;;0.70;0.70;;;9.20;99.90;;;;;;5133621;27;20051;-80
2023/12/24 04:30:03;;;;;;;0.40;0.40;;;9.10;99.90;;;;;;5122822;27;20157;-78
2023/12/24 04:32:29;;;;;;;0.40;0.40;;;9.20;99.90;;;;;;5129849;27;20553;-80
2023/12/24 04:34:54;;;;;;;0.40;0.40;;;9.20;99.90;;;;;;5116441;27;20141;-81
2023/12/24 04:37:20;;;;;;;0.30;0.30;;;9.20;99.90;;;;;;5141849;27;20034;-79
2023/12/24 04:39:46;;;;;;;0.40;0.40;;;9.20;99.90;;;;;;5129645;27;20107;-83
2023/12/24 04:42:12;;;;;;;1.85;0.50;;;9.10;99.90;;;;;;5129323;27;20039;-80
2023/12/24 04:44:41;;;;;;;0.30;0.30;;;9.20;99.90;;;;;;5130153;27;20031;-81
2023/12/24 04:47:07;;;;;;;0.30;0.30;;;9.20;99.90;;;;;;5110072;27;20070;-81
2023/12/24 04:49:33;;;;;;;0.40;0.40;;;9.20;99.90;;;;;;5127676;27;20035;-78
2023/12/24 04:51:59;;;;;;;0.30;0.30;;;9.20;99.90;;;;;;5126116;27;20035;-78
2023/12/24 04:54:26;;;;;;;0.30;0.30;;;9.20;99.90;;;;;;5126400;27;20788;-81
2023/12/24 04:56:52;;;;;;;0.30;0.30;;;9.20;99.90;;;;;;5123695;27;20047;-80
2023/12/24 04:59:17;;;;;;;0.40;0.40;;;9.20;99.90;;;;;;5120245;27;20545;-80
2023/12/24 05:01:43;;;;;;;0.40;0.40;;;9.30;99.90;;;;;;5134268;27;20427;-81
2023/12/24 05:04:09;;;;;;;0.40;0.40;;;9.20;99.90;;;;;;5129288;27;20031;-78
2023/12/24 05:06:35;;;;;;;0.40;0.40;;;9.30;99.90;;;;;;5116344;27;20039;-79
2023/12/24 05:09:01;;;;;;;0.40;0.40;;;9.30;99.90;;;;;;5133130;27;20065;-79
2023/12/24 05:11:26;;;;;;;0.43;0.43;;;9.40;99.90;;;;;;5121076;27;20039;-79
2023/12/24 05:13:52;;;;;;;0.30;0.30;;;9.30;99.90;;;;;;5130885;27;20069;-78
2023/12/24 05:16:17;;;;;;;0.90;0.90;;;9.30;99.90;;;;;;5130002;27;20042;-78
2023/12/24 05:18:44;;;;;;;0.88;0.80;;;9.40;99.90;;;;;;5131379;27;20515;-77
2023/12/24 05:21:09;;;;;;;;;;;9.40;99.90;;;;;;5111830;27;20133;-78
2023/12/24 05:23:35;;;;;;;0.32;0.32;;;9.40;99.90;;;;;;5129304;27;20464;-77
2023/12/24 05:26:00;;;;;;;0.35;0.35;;;9.40;99.90;;;;;;5126618;27;20055;-80
2023/12/24 05:28:26;;;;;;;0.40;0.40;;;9.40;99.90;;;;;;5131194;27;20133;-83
2023/12/24 05:30:53;;;;;;;0.40;0.40;;;9.40;99.90;;;;;;5131219;27;20527;-76
2023/12/24 05:33:19;;;;;;;0.40;0.40;;;9.40;99.90;;;;;;5129138;27;20095;-81
2023/12/24 05:35:45;;;;;;;0.30;0.30;;;9.40;99.90;;;;;;5109377;27;20070;-79
2023/12/24 05:38:10;;;;;;;0.20;0.20;;;9.50;99.90;;;;;;5130020;27;20069;-79
2023/12/24 05:40:36;;;;;;;0.30;0.30;;;9.50;99.90;;;;;;5130184;27;20043;-81
2023/12/24 05:43:02;;;;;;;0.52;0.52;;;9.50;99.90;;;;;;5134058;27;20507;-81
2023/12/24 05:45:28;;;;;;;0.30;0.30;;;9.50;99.90;;;;;;5125732;27;20043;-79
2023/12/24 05:47:54;;;;;;;0.30;0.30;;;9.40;99.90;;;;;;5110842;27;20058;-81
2023/12/24 05:50:21;;;;;;;0.30;0.30;;;9.50;99.90;;;;;;5129775;27;20379;-82
2023/12/24 05:52:46;;;;;;;0.28;0.28;;;9.50;99.90;;;;;;5127487;27;20050;-78
2023/12/24 05:55:12;;;;;;;0.40;0.40;;;9.50;99.90;;;;;;5115009;27;20047;-77
2023/12/24 05:57:38;;;;;;;0.30;0.30;;;9.50;99.90;;;;;;5132508;27;20046;-80
2023/12/24 06:00:05;;;;;;;0.30;0.30;;;9.60;99.90;;;;;;5136803;27;20050;-81
2023/12/24 06:02:31;;;;;;;1.98;0.65;;;9.50;99.90;;;;;;5094792;27;20511;-80
2023/12/24 06:04:56;;;;;;;0.28;0.28;;;9.60;99.90;;;;;;5093193;27;20043;-81
2023/12/24 06:07:22;;;;;;;0.30;0.30;;;9.60;99.90;;;;;;5076551;27;20121;-78
2023/12/24 06:09:48;;;;;;;0.40;0.40;;;9.60;99.90;;;;;;5131120;27;20053;-79
2023/12/24 06:12:14;;;;;;;0.30;0.30;;;9.60;99.90;;;;;;5114328;27;20078;-80
2023/12/24 06:14:39;;;;;;;0.30;0.30;;;9.60;99.90;;;;;;5126177;27;20523;-79
2023/12/24 06:17:05;;;;;;;0.25;0.25;;;9.70;99.90;;;;;;5109483;27;20121;-78
2023/12/24 06:19:31;;;;;;;0.40;0.40;;;9.60;99.90;;;;;;5123264;27;20039;-81
2023/12/24 06:21:59;;;;;;;0.60;0.60;;;9.70;99.90;;;;;;5127974;27;20039;-78
2023/12/24 06:24:25;;;;;;;0.30;0.30;;;9.70;99.90;;;;;;5130172;27;20078;-78
2023/12/24 06:26:51;;;;;;;0.70;0.70;;;9.60;99.90;;;;;;5127631;27;20048;-78
2023/12/24 06:29:19;;;;;;;0.40;0.40;;;9.60;99.90;;;;;;5135851;27;20061;-78
2023/12/24 06:31:45;;;;;;;0.30;0.30;;;9.60;99.90;;;;;;5111429;27;20403;-80
2023/12/24 06:34:11;;;;;;;0.40;0.40;;;9.70;99.90;;;;;;5125623;27;20061;-78
2023/12/24 06:36:37;;;;;;;0.88;0.88;;;9.60;99.90;;;;;;5121956;27;20039;-81
2023/12/24 06:39:04;;;;;;;0.40;0.40;;;9.70;99.90;;;;;;5125531;27;20414;-83
2023/12/24 06:41:29;;;;;;;0.30;0.30;;;9.70;99.90;;;;;;5123461;27;20053;-78
2023/12/24 06:43:55;;;;;;;0.50;0.50;;;9.70;99.90;;;;;;5123491;27;20492;-79
2023/12/24 06:46:21;;;;;;;0.52;0.52;;;9.70;99.90;;;;;;5119018;27;20043;-81
2023/12/24 06:48:46;;;;;;;0.40;0.40;;;9.70;99.90;;;;;;5098833;27;20040;-77
2023/12/24 06:51:12;;;;;;;0.60;0.60;;;9.80;99.90;;;;;;5108701;27;20404;-79
2023/12/24 06:53:38;;;;;;;0.40;0.40;;;9.80;99.90;;;;;;5128719;27;20047;-82
2023/12/24 06:56:04;;;;;;;0.20;0.20;;;9.80;99.90;;;;;;5122544;27;20506;-80
2023/12/24 06:58:30;;;;;;;0.32;0.32;;;9.80;99.90;;;;;;5124295;27;20042;-78
2023/12/24 07:00:56;;;;;;;0.40;0.40;;;9.80;99.90;;;;;;5091126;28;20201;-77
2023/12/24 07:03:22;;;;;;;0.40;0.40;;;9.80;99.90;;;;;;5103773;27;20634;-79
2023/12/24 07:05:47;;;;;;;0.30;0.30;;;9.80;99.90;;;;;;5094288;27;20051;-83
2023/12/24 07:08:13;;;;;;;0.38;0.38;;;9.80;99.90;;;;;;5112058;27;20248;-84
2023/12/24 07:10:39;;;;;;;0.30;0.30;;;9.80;99.90;;;;;;5127733;27;20126;-79
2023/12/24 07:13:04;;;;;;;0.40;0.40;;;9.90;99.90;;;;;;5131252;27;20036;-81
2023/12/24 07:15:31;;;;;;;0.30;0.30;;;9.90;99.90;;;;;;5121640;27;20092;-79
2023/12/24 07:17:57;;;;;;;0.28;0.28;;;9.90;99.90;;;;;;5125484;27;20486;-80
2023/12/24 07:20:23;;;;;;;0.20;0.20;;;9.90;99.90;;;;;;5121444;27;20078;-78
2023/12/24 07:22:49;;;;;;;0.30;0.30;;;9.90;99.90;;;;;;5110010;27;20181;-78
2023/12/24 07:25:15;;;;;;;0.30;0.30;;;9.90;99.90;;;;;;5112054;27;20071;-82
2023/12/24 07:27:43;;;;;;;0.43;0.43;;;10.00;99.90;;;;;;5123680;27;20050;-80
2023/12/24 07:30:09;;;;;;;0.40;0.40;;;10.00;99.90;;;;;;5105334;27;20578;-81
2023/12/24 07:32:35;;;;;;;0.30;0.30;;;9.90;99.90;;;;;;5122202;27;20039;-80
2023/12/24 07:35:01;;;;;;;0.30;0.30;;;10.00;99.90;;;;;;5126373;27;20041;-79
2023/12/24 07:37:26;;;;;;;0.95;0.50;;;10.00;99.90;;;;;;5134865;27;20107;-82
2023/12/24 07:39:52;;;;;;;0.35;0.35;;;10.00;99.90;;;;;;5132716;27;20053;-82
2023/12/24 07:42:18;;;;;;;0.30;0.30;;;10.00;99.90;;;;;;5129878;27;20107;-79
2023/12/24 07:44:44;;;;;;;0.40;0.40;;;10.00;99.90;;;;;;5130083;27;20075;-80
2023/12/24 07:47:10;;;;;;;0.32;0.32;;;10.00;99.90;;;;;;5130655;27;20075;-80
2023/12/24 07:49:38;;;;;;;0.30;0.30;;;10.00;99.90;;;;;;5115227;27;20037;-84
2023/12/24 07:52:04;;;;;;;0.40;0.40;;;10.10;99.90;;;;;;5114402;27;20051;-82
2023/12/24 07:54:30;;;;;;;2.08;1.25;;;10.10;99.90;;;;;;5104151;27;20035;-81
2023/12/24 07:56:59;;;;;;;0.30;0.30;;;10.20;99.90;;;;;;5133272;27;20077;-83
2023/12/24 07:59:24;;;;;;;0.40;0.40;;;10.10;99.90;;;;;;5145823;27;20043;-83
2023/12/24 08:01:50;;;;;;;0.30;0.30;;;10.10;99.90;;;;;;5111182;27;20395;-81
2023/12/24 08:04:16;;;;;;;0.35;0.35;;;10.20;99.90;;;;;;5123040;27;20042;-81
2023/12/24 08:06:41;;;;;;;0.60;0.60;;;10.10;99.90;;;;;;5131860;27;20054;-83
2023/12/24 08:09:08;;;;;;;0.40;0.40;;;10.20;99.90;;;;;;5129482;28;20086;-78
2023/12/24 08:11:33;;;;;;;0.98;0.90;;;10.20;99.90;;;;;;5131183;27;20727;-81
2023/12/24 08:13:59;;;;;;;0.40;0.40;;;10.20;99.90;;;;;;5116473;28;20086;-79
2023/12/24 08:16:25;;;;;;;0.50;0.50;;;10.10;99.90;;;;;;5129785;27;20074;-81
2023/12/24 08:18:50;;;;;;;0.65;0.60;;;10.20;99.90;;;;;;5120107;27;20043;-78
2023/12/24 08:21:16;;;;;;;3.13;1.05;;;10.20;99.90;;;;;;5133376;27;20039;-81
2023/12/24 08:23:43;;;;;;;0.45;0.45;;;10.20;99.90;;;;;;5125618;27;20051;-79
2023/12/24 08:26:09;;;;;;;0.30;0.30;;;10.10;99.90;;;;;;5135200;27;20380;-81
2023/12/24 08:28:35;;;;;;;0.30;0.30;;;10.10;99.90;;;;;;5131591;27;20077;-82
2023/12/24 08:31:00;;;;;;;0.32;0.32;;;10.20;99.90;;;;;;5140822;27;20046;-82
2023/12/24 08:33:26;;;;;;;0.40;0.40;;;10.20;99.90;;;;;;5135762;27;20035;-81
2023/12/24 08:35:52;;;;;;;0.40;0.40;;;10.20;99.90;;;;;;5139591;27;20071;-81
2023/12/24 08:38:17;;;;;;;0.30;0.30;;;10.20;99.90;;;;;;5131859;27;20046;-80
2023/12/24 08:40:43;;;;;;;0.30;0.30;;;10.20;99.90;;;;;;5123517;27;20035;-80
2023/12/24 08:43:09;;;;;;;0.32;0.32;;;10.20;99.90;;;;;;5136794;27;20128;-80
2023/12/24 08:45:34;;;;;;;0.40;0.40;;;10.20;99.90;;;;;;5129698;27;20589;-84
2023/12/24 08:48:00;;;;;;;0.88;0.88;;;10.30;99.90;;;;;;5134414;27;20047;-80
2023/12/24 08:50:26;;;;;;;0.40;0.40;;;10.30;99.90;;;;;;5133798;27;20038;-78
2023/12/24 08:52:51;;;;;;;0.30;0.30;;;10.30;99.90;;;;;;5130235;27;20031;-81
2023/12/24 08:55:18;;;;;;;0.60;0.60;;;10.30;99.90;;;;;;5132537;27;20089;-81
2023/12/24 08:57:43;;;;;;;0.40;0.40;;;10.30;99.90;;;;;;5116407;27;20060;-79
2023/12/24 09:00:12;;;;;;;0.47;0.47;;;10.30;99.90;;;;;;5114937;27;20510;-80
2023/12/24 09:02:39;;;;;;;0.40;0.40;;;10.30;99.90;;;;;;5134679;27;20111;-79
2023/12/24 09:05:09;;;;;;;0.40;0.40;;;10.30;99.90;;;;;;5116915;27;20043;-79
2023/12/24 09:07:35;;;;;;;0.32;0.32;;;10.30;99.90;;;;;;5119080;27;20047;-78
2023/12/24 09:10:02;;;;;;;0.25;0.25;;;10.40;99.90;;;;;;5116575;27;20035;-80
2023/12/24 09:12:28;;;;;;;0.82;0.82;;;10.40;99.90;;;;;;5143477;27;20551;-82
2023/12/24 09:14:54;;;;;;;0.30;0.30;;;10.40;99.90;;;;;;5115235;27;20118;-81
2023/12/24 09:17:20;;;;;;;0.30;0.30;;;10.40;99.90;;;;;;5134747;27;20089;-80
2023/12/24 09:19:45;;;;;;;0.30;0.30;;;10.40;99.90;;;;;;5113411;27;20039;-80
2023/12/24 09:22:11;;;;;;;0.40;0.40;;;10.40;99.90;;;;;;5129784;27;20048;-81
2023/12/24 09:24:37;;;;;;;0.40;0.40;;;10.40;99.90;;;;;;5111458;27;20051;-78
2023/12/24 09:27:03;;;;;;;0.30;0.30;;;10.50;99.90;;;;;;5129280;27;20381;-80
2023/12/24 09:29:29;;;;;;;;;;;10.40;99.90;;;;;;5128651;27;20072;-79
2023/12/24 09:31:54;;;;;;;0.38;0.38;;;10.50;99.90;;;;;;5138045;27;19923;-78
2023/12/24 09:34:20;;;;;;;0.30;0.30;;;10.50;99.90;;;;;;5137467;27;20384;-85
2023/12/24 09:36:46;;;;;;;0.40;0.40;;;10.50;99.90;;;;;;5114541;27;20046;-77
2023/12/24 09:39:12;;;;;;;0.60;0.60;;;10.50;99.90;;;;;;5128175;27;20039;-82
2023/12/24 09:41:37;;;;;;;0.35;0.35;;;10.50;99.90;;;;;;5130584;27;20426;-80
2023/12/24 09:44:06;;;;;;;0.40;0.40;;;10.50;99.90;;;;;;5135144;27;20137;-77
2023/12/24 09:46:32;;;;;;;0.30;0.30;;;10.50;99.90;;;;;;5128085;27;20042;-82
2023/12/24 09:48:58;;;;;;;0.30;0.30;;;10.60;99.90;;;;;;5131452;27;20463;-78
2023/12/24 09:51:25;;;;;;;0.30;0.30;;;10.60;99.90;;;;;;5108785;27;20051;-82
2023/12/24 09:53:52;;;;;;;0.30;0.30;;;10.60;99.90;;;;;;5106798;27;20114;-80
2023/12/24 09:56:19;;;;;;;0.40;0.40;;;10.60;99.90;;;;;;5138191;27;20043;-80
2023/12/24 09:58:48;;;;;;;0.35;0.35;;;11.10;99.90;;;;;;5132413;27;20403;-80
2023/12/24 10:01:19;;;;;;;0.80;0.43;;;10.70;99.90;;;;;;5130378;27;20091;-80
2023/12/24 10:03:45;;;;;;;0.30;0.30;;;10.70;99.90;;;;;;5129418;27;20035;-82
2023/12/24 10:06:11;;;;;;;0.30;0.30;;;10.70;99.90;;;;;;5130606;27;20040;-78
2023/12/24 10:08:37;;;;;;;0.30;0.30;;;10.70;99.90;;;;;;5119380;27;20106;-78
2023/12/24 10:11:13;;;;;;;;;;;10.70;99.90;;;;;;5129805;27;20047;-80
2023/12/24 10:13:38;;;;;;;0.30;0.30;;;10.70;99.90;;;;;;5130357;27;19919;-80
2023/12/24 10:16:05;;;;;;;0.30;0.30;;;10.70;99.90;;;;;;5133869;27;20392;-80
2023/12/24 10:18:31;;;;;;;0.30;0.30;;;10.70;99.90;;;;;;5127548;27;20039;-78
2023/12/24 10:21:05;;;;;;;0.20;0.20;;;10.70;99.90;;;;;;5130599;27;20046;-81
2023/12/24 10:23:31;;;;;;;0.30;0.30;;;10.70;99.90;;;;;;5119909;27;20370;-75
2023/12/24 10:26:05;;;;;;;0.47;0.30;;;10.70;99.90;;;;;;5112987;27;20086;-78
2023/12/24 10:28:32;;;;;;;1.10;1.10;;;10.80;99.90;;;;;;5127902;27;20109;-82
2023/12/24 10:31:09;;;;;;;0.30;0.30;;;10.80;99.90;;;;;;5114044;27;20328;-80
2023/12/24 10:33:36;;;;;;;0.77;0.73;;;10.90;99.90;;;;;;5128666;27;20046;-77
2023/12/24 10:36:02;;;;;;;0.60;0.60;;;10.90;99.90;;;;;;5133205;27;20421;-82
2023/12/24 10:38:28;;;;;;;;;;;10.90;99.90;;;;;;5128637;27;20388;-80
2023/12/24 10:40:54;;;;;;;0.30;0.30;;;10.90;99.90;;;;;;5109530;27;19934;-77
2023/12/24 10:43:20;;;;;;;0.65;0.45;;;11.00;99.90;;;;;;5130231;27;20129;-76
2023/12/24 10:45:45;;;;;;;0.30;0.30;;;11.10;99.90;;;;;;5115806;27;20754;-79
2023/12/24 10:48:11;;;;;;;0.30;0.30;;;11.10;99.90;;;;;;5137251;27;20043;-78
2023/12/24 10:50:37;;;;;;;;;;;11.20;99.90;;;;;;5145838;27;20397;-81
2023/12/24 10:53:03;;;;;;;0.30;0.30;;;11.20;99.90;;;;;;5130965;27;19919;-77
2023/12/24 10:55:33;;;;;;;;;;;11.20;99.90;;;;;;5131278;27;20043;-77
2023/12/24 10:58:14;;;;;;;0.40;0.40;;;11.20;99.90;;;;;;5131587;27;19946;-78
2023/12/24 11:00:40;;;;;;;1.40;1.30;;;11.30;99.90;;;;;;5129038;27;20034;-78
2023/12/24 11:03:06;;;;;;;0.40;0.40;;;11.30;99.90;;;;;;5127755;27;20039;-79
2023/12/24 11:05:42;;;;;;;0.40;0.40;;;11.30;99.90;;;;;;5135226;27;20039;-81
2023/12/24 11:08:31;;;;;;;1.75;1.67;;;11.40;99.90;;;;;;5133052;27;20516;-79
2023/12/24 11:11:03;;;;;;;2.30;0.98;;;11.40;99.90;;;;;;5113425;27;20092;-76
2023/12/24 11:13:32;;;;;;;1.08;0.65;;;11.40;99.90;;;;;;5131356;27;20043;-76
2023/12/24 11:16:06;;;;;;;2.17;2.03;;;11.50;99.90;;;;;;5113860;27;20055;-77
2023/12/24 11:18:49;;;;;;;0.40;0.40;;;11.50;99.90;;;;;;5124648;27;20047;-81
2023/12/24 11:21:18;;;;;;;0.50;0.50;;;11.50;99.90;;;;;;5130119;27;20050;-78
2023/12/24 11:24:12;;;;;;;0.40;0.40;;;11.50;99.90;;;;;;5111458;27;20052;-81
2023/12/24 11:26:48;;;;;;;0.40;0.40;;;11.40;99.90;;;;;;5140495;27;20051;-77
2023/12/24 11:29:43;;;;;;;0.40;0.40;;;11.40;99.90;;;;;;5112092;27;20072;-80
2023/12/24 11:32:24;;;;;;;0.40;0.40;;;11.40;99.90;;;;;;5127282;27;20046;-79
2023/12/24 11:34:50;;;;;;;0.57;0.38;;;11.30;99.90;;;;;;5127944;27;20070;-77
2023/12/24 11:37:29;;;;;;;0.77;0.77;;;11.30;99.90;;;;;;5134242;27;20042;-82
2023/12/24 11:40:08;;;;;;;0.40;0.40;;;11.30;99.90;;;;;;5139562;27;20034;-79
2023/12/24 11:42:50;;;;;;;0.35;0.35;;;11.30;99.90;;;;;;5135650;27;20046;-77
2023/12/24 11:45:20;;;;;;;0.40;0.40;;;11.30;99.90;;;;;;5132151;27;20057;-79
2023/12/24 11:47:46;;;;;;;0.30;0.30;;;11.30;99.90;;;;;;5141644;27;20037;-80
2023/12/24 11:50:12;;;;;;;0.30;0.30;;;11.40;99.90;;;;;;5142080;27;20383;-78
2023/12/24 11:52:46;;;;;;;0.30;0.30;;;11.40;99.90;;;;;;5116298;27;20057;-80
2023/12/24 11:55:21;;;;;;;0.50;0.50;;;11.40;99.90;;;;;;5108725;27;20042;-77
2023/12/24 11:57:48;;;;;;;0.65;0.63;;;11.50;99.90;;;;;;5135691;27;20443;-81
2023/12/24 12:00:25;;;;;;;0.30;0.30;;;11.50;99.90;;;;;;5137641;27;20557;-78
2023/12/24 12:02:59;;;;;;;0.40;0.40;;;11.60;99.90;;;;;;5141937;27;20092;-79
2023/12/24 12:05:25;;;;;;;0.82;0.82;;;11.60;99.90;;;;;;5100812;27;20124;-78
2023/12/24 12:07:54;;;;;;;0.30;0.30;;;11.70;99.90;;;;;;5134628;27;20532;-79
2023/12/24 12:10:21;;;;;;;0.40;0.40;;;11.70;99.90;;;;;;5127665;27;20079;-78
2023/12/24 12:12:46;;;;;;;0.30;0.30;;;11.70;99.90;;;;;;5114246;27;20109;-76
2023/12/24 12:15:13;;;;;;;0.40;0.40;;;11.70;99.90;;;;;;5119938;27;20122;-78
2023/12/24 12:17:39;;;;;;;0.30;0.30;;;11.80;99.90;;;;;;5133804;27;20039;-84
2023/12/24 12:20:05;;;;;;;0.80;0.80;;;11.80;99.90;;;;;;5129347;27;20047;-81
2023/12/24 12:22:31;;;;;;;0.40;0.40;;;11.80;99.90;;;;;;5108798;27;20045;-79
2023/12/24 12:24:57;;;;;;;0.40;0.40;;;11.80;99.90;;;;;;5129801;27;20054;-78
2023/12/24 12:27:24;;;;;;;0.50;0.50;;;11.80;99.90;;;;;;5132125;27;20442;-78
2023/12/24 12:29:50;;;;;;;0.30;0.30;;;11.80;99.90;;;;;;5128095;27;20102;-80
2023/12/24 12:32:16;;;;;;;0.35;0.35;;;11.80;99.90;;;;;;5129804;27;20556;-82
2023/12/24 12:34:43;;;;;;;0.30;0.30;;;11.90;99.90;;;;;;5133366;27;20307;-77
2023/12/24 12:37:09;;;;;;;0.30;0.30;;;11.90;99.90;;;;;;5116352;27;20039;-80
2023/12/24 12:39:35;;;;;;;1.15;1.15;;;11.80;99.90;;;;;;5128363;27;20049;-82
2023/12/24 12:42:02;;;;;;;0.20;0.20;;;11.90;99.90;;;;;;5133849;27;20069;-78
2023/12/24 12:44:29;;;;;;;0.63;0.63;;;11.80;99.90;;;;;;5129958;27;20099;-77
2023/12/24 12:46:55;;;;;;;0.50;0.50;;;11.90;99.90;;;;;;5130551;27;20035;-79
2023/12/24 12:49:20;;;;;;;0.40;0.40;;;11.90;99.90;;;;;;5109970;27;20031;-79
2023/12/24 12:51:47;;;;;;;0.47;0.47;;;12.00;99.90;;;;;;5129435;27;20142;-81
2023/12/24 12:54:14;;;;;;;0.32;0.32;;;12.00;99.90;;;;;;5128524;27;20112;-76